Clear Lake, South Dakota
Current Conditions -  °F | °C
As of 9:14 PM on Friday 21 Nov 2014 (Local Time) from KCNB Reporting Station
Overcast Overcast  
Wind Chill: 27°   Ceiling: 11000
Heat Index: 36°   Visibility: 10mi
Dew Point: 30°   Wind: 14mph
Humidity: 79%   Direction: 210°SSW
Pressure: 29.79"   Gusts: 25mph
Location:  44.75°N, 96.68°W
Report Text: KCNB 220314Z AUTO 21012G22KT 10SM OVC110 02/M01 A2979 RMK AO2 T00231010
Loading
Personal Weather Stations






























Interactive Weather Map New forecast layout! Learn more

10-Day Weather Forecast

Advertisements
Track Severe Weather on mobile